sensor_id;sensor_type;location;lat;lon;timestamp;P1;durP1;ratioP1;P2;durP2;ratioP2
67164;SDS011;54093;50.014;19.984;2023-04-24T00:08:01;4.05;;;3.70;;
67164;SDS011;54093;50.014;19.984;2023-04-24T00:17:22;4.90;;;4.57;;
67164;SDS011;54093;50.014;19.984;2023-04-24T00:26:43;4.18;;;3.70;;
67164;SDS011;54093;50.014;19.984;2023-04-24T00:36:04;3.65;;;3.45;;
67164;SDS011;54093;50.014;19.984;2023-04-24T00:45:26;3.80;;;3.50;;
67164;SDS011;54093;50.014;19.984;2023-04-24T00:54:47;4.00;;;3.60;;
67164;SDS011;54093;50.014;19.984;2023-04-24T01:04:09;3.92;;;3.40;;
67164;SDS011;54093;50.014;19.984;2023-04-24T01:13:31;5.88;;;4.38;;
67164;SDS011;54093;50.014;19.984;2023-04-24T01:22:54;4.50;;;4.10;;
67164;SDS011;54093;50.014;19.984;2023-04-24T01:32:17;4.07;;;3.80;;
67164;SDS011;54093;50.014;19.984;2023-04-24T01:41:38;3.45;;;3.17;;
67164;SDS011;54093;50.014;19.984;2023-04-24T01:50:59;5.13;;;4.60;;
67164;SDS011;54093;50.014;19.984;2023-04-24T02:00:20;3.95;;;3.75;;
67164;SDS011;54093;50.014;19.984;2023-04-24T02:09:41;3.22;;;3.03;;
67164;SDS011;54093;50.014;19.984;2023-04-24T02:19:02;10.02;;;2.97;;
67164;SDS011;54093;50.014;19.984;2023-04-24T02:28:23;3.80;;;3.50;;
67164;SDS011;54093;50.014;19.984;2023-04-24T02:37:44;4.13;;;3.72;;
67164;SDS011;54093;50.014;19.984;2023-04-24T02:47:05;3.22;;;3.05;;
67164;SDS011;54093;50.014;19.984;2023-04-24T02:56:26;7.00;;;3.28;;
67164;SDS011;54093;50.014;19.984;2023-04-24T03:05:47;3.10;;;2.90;;
67164;SDS011;54093;50.014;19.984;2023-04-24T03:15:08;3.92;;;3.28;;
67164;SDS011;54093;50.014;19.984;2023-04-24T03:24:29;3.08;;;2.83;;
67164;SDS011;54093;50.014;19.984;2023-04-24T03:33:51;3.63;;;3.28;;
67164;SDS011;54093;50.014;19.984;2023-04-24T03:43:11;3.25;;;3.05;;
67164;SDS011;54093;50.014;19.984;2023-04-24T03:52:32;3.30;;;3.10;;
67164;SDS011;54093;50.014;19.984;2023-04-24T04:01:53;3.35;;;3.05;;
67164;SDS011;54093;50.014;19.984;2023-04-24T04:11:14;3.42;;;3.13;;
67164;SDS011;54093;50.014;19.984;2023-04-24T04:20:35;3.25;;;3.10;;
67164;SDS011;54093;50.014;19.984;2023-04-24T04:29:56;4.13;;;3.70;;
67164;SDS011;54093;50.014;19.984;2023-04-24T04:39:17;3.28;;;2.90;;
67164;SDS011;54093;50.014;19.984;2023-04-24T04:48:39;3.90;;;3.65;;
67164;SDS011;54093;50.014;19.984;2023-04-24T04:58:00;6.93;;;3.08;;
67164;SDS011;54093;50.014;19.984;2023-04-24T05:07:21;5.85;;;3.42;;
67164;SDS011;54093;50.014;19.984;2023-04-24T05:16:42;3.80;;;3.50;;
67164;SDS011;54093;50.014;19.984;2023-04-24T05:26:03;4.88;;;4.28;;
67164;SDS011;54093;50.014;19.984;2023-04-24T05:35:24;7.07;;;4.45;;
67164;SDS011;54093;50.014;19.984;2023-04-24T05:44:45;8.88;;;4.88;;
67164;SDS011;54093;50.014;19.984;2023-04-24T05:54:06;15.45;;;5.70;;
67164;SDS011;54093;50.014;19.984;2023-04-24T06:03:27;11.85;;;5.78;;
67164;SDS011;54093;50.014;19.984;2023-04-24T06:12:48;10.30;;;5.20;;
67164;SDS011;54093;50.014;19.984;2023-04-24T06:22:09;18.02;;;5.57;;
67164;SDS011;54093;50.014;19.984;2023-04-24T06:31:30;11.38;;;4.18;;
67164;SDS011;54093;50.014;19.984;2023-04-24T06:40:55;21.93;;;4.87;;
67164;SDS011;54093;50.014;19.984;2023-04-24T06:50:16;9.90;;;4.68;;
67164;SDS011;54093;50.014;19.984;2023-04-24T06:59:37;30.70;;;6.28;;
67164;SDS011;54093;50.014;19.984;2023-04-24T07:08:58;28.42;;;5.57;;
67164;SDS011;54093;50.014;19.984;2023-04-24T07:18:20;6.82;;;4.10;;
67164;SDS011;54093;50.014;19.984;2023-04-24T07:27:41;5.43;;;2.95;;
67164;SDS011;54093;50.014;19.984;2023-04-24T07:37:02;2.30;;;2.10;;
67164;SDS011;54093;50.014;19.984;2023-04-24T07:46:23;2.80;;;2.60;;
67164;SDS011;54093;50.014;19.984;2023-04-24T07:55:45;2.35;;;2.25;;
67164;SDS011;54093;50.014;19.984;2023-04-24T08:05:06;2.28;;;2.17;;
67164;SDS011;54093;50.014;19.984;2023-04-24T08:14:27;2.90;;;2.70;;
67164;SDS011;54093;50.014;19.984;2023-04-24T08:23:49;6.18;;;3.22;;
67164;SDS011;54093;50.014;19.984;2023-04-24T08:33:10;4.72;;;2.67;;
67164;SDS011;54093;50.014;19.984;2023-04-24T08:42:31;2.15;;;2.03;;
67164;SDS011;54093;50.014;19.984;2023-04-24T08:51:53;2.10;;;2.00;;
67164;SDS011;54093;50.014;19.984;2023-04-24T09:01:15;2.30;;;2.20;;
67164;SDS011;54093;50.014;19.984;2023-04-24T09:10:36;4.38;;;2.20;;
67164;SDS011;54093;50.014;19.984;2023-04-24T09:19:57;2.28;;;2.17;;
67164;SDS011;54093;50.014;19.984;2023-04-24T09:29:18;2.65;;;2.55;;
67164;SDS011;54093;50.014;19.984;2023-04-24T09:38:39;3.13;;;2.13;;
67164;SDS011;54093;50.014;19.984;2023-04-24T09:48:00;2.15;;;2.05;;
67164;SDS011;54093;50.014;19.984;2023-04-24T09:57:21;2.80;;;2.60;;
67164;SDS011;54093;50.014;19.984;2023-04-24T10:06:42;4.18;;;2.20;;
67164;SDS011;54093;50.014;19.984;2023-04-24T10:16:03;2.47;;;2.38;;
67164;SDS011;54093;50.014;19.984;2023-04-24T10:25:26;6.57;;;2.67;;
67164;SDS011;54093;50.014;19.984;2023-04-24T10:34:48;2.20;;;2.10;;
67164;SDS011;54093;50.014;19.984;2023-04-24T10:44:10;26.02;;;3.47;;
67164;SDS011;54093;50.014;19.984;2023-04-24T10:53:35;3.13;;;2.10;;
67164;SDS011;54093;50.014;19.984;2023-04-24T11:02:56;21.10;;;3.17;;
67164;SDS011;54093;50.014;19.984;2023-04-24T11:12:18;6.13;;;2.30;;
67164;SDS011;54093;50.014;19.984;2023-04-24T11:41:00;5.57;;;2.25;;
67164;SDS011;54093;50.014;19.984;2023-04-24T11:50:24;9.93;;;2.80;;
67164;SDS011;54093;50.014;19.984;2023-04-24T11:59:47;2.13;;;2.03;;
67164;SDS011;54093;50.014;19.984;2023-04-24T12:09:10;4.50;;;2.38;;
67164;SDS011;54093;50.014;19.984;2023-04-24T12:18:32;3.08;;;2.90;;
67164;SDS011;54093;50.014;19.984;2023-04-24T12:27:54;3.00;;;2.80;;
67164;SDS011;54093;50.014;19.984;2023-04-24T12:37:16;2.60;;;2.50;;
67164;SDS011;54093;50.014;19.984;2023-04-24T12:46:37;2.63;;;2.30;;
67164;SDS011;54093;50.014;19.984;2023-04-24T12:55:58;8.35;;;3.30;;
67164;SDS011;54093;50.014;19.984;2023-04-24T13:05:19;4.60;;;3.30;;
67164;SDS011;54093;50.014;19.984;2023-04-24T13:14:39;7.93;;;3.20;;
67164;SDS011;54093;50.014;19.984;2023-04-24T13:24:01;3.38;;;2.92;;
67164;SDS011;54093;50.014;19.984;2023-04-24T13:33:22;2.47;;;2.38;;
67164;SDS011;54093;50.014;19.984;2023-04-24T13:42:43;3.08;;;2.88;;
67164;SDS011;54093;50.014;19.984;2023-04-24T13:52:03;5.55;;;2.75;;
67164;SDS011;54093;50.014;19.984;2023-04-24T14:01:24;2.47;;;2.13;;
67164;SDS011;54093;50.014;19.984;2023-04-24T14:10:45;2.10;;;2.00;;
67164;SDS011;54093;50.014;19.984;2023-04-24T14:20:07;4.25;;;1.60;;
67164;SDS011;54093;50.014;19.984;2023-04-24T14:29:28;1.83;;;1.73;;
67164;SDS011;54093;50.014;19.984;2023-04-24T14:38:49;1.92;;;1.83;;
67164;SDS011;54093;50.014;19.984;2023-04-24T14:48:10;2.08;;;1.98;;
67164;SDS011;54093;50.014;19.984;2023-04-24T14:57:31;4.32;;;1.90;;
67164;SDS011;54093;50.014;19.984;2023-04-24T15:06:53;2.00;;;1.90;;
67164;SDS011;54093;50.014;19.984;2023-04-24T15:16:15;2.10;;;2.00;;
67164;SDS011;54093;50.014;19.984;2023-04-24T15:25:36;2.53;;;2.38;;
67164;SDS011;54093;50.014;19.984;2023-04-24T15:34:58;4.85;;;2.17;;
67164;SDS011;54093;50.014;19.984;2023-04-24T15:44:20;2.17;;;2.08;;
67164;SDS011;54093;50.014;19.984;2023-04-24T15:53:41;2.40;;;2.25;;
67164;SDS011;54093;50.014;19.984;2023-04-24T16:03:03;2.08;;;1.85;;
67164;SDS011;54093;50.014;19.984;2023-04-24T16:12:24;1.50;;;1.50;;
67164;SDS011;54093;50.014;19.984;2023-04-24T16:21:47;1.90;;;1.80;;
67164;SDS011;54093;50.014;19.984;2023-04-24T16:31:08;2.00;;;1.90;;
67164;SDS011;54093;50.014;19.984;2023-04-24T16:40:29;2.33;;;2.22;;
67164;SDS011;54093;50.014;19.984;2023-04-24T16:49:51;2.53;;;2.25;;
67164;SDS011;54093;50.014;19.984;2023-04-24T16:59:15;2.40;;;2.30;;
67164;SDS011;54093;50.014;19.984;2023-04-24T17:08:41;5.18;;;2.60;;
67164;SDS011;54093;50.014;19.984;2023-04-24T17:18:02;2.70;;;2.60;;
67164;SDS011;54093;50.014;19.984;2023-04-24T17:27:25;3.40;;;3.10;;
67164;SDS011;54093;50.014;19.984;2023-04-24T17:36:45;3.50;;;3.28;;
67164;SDS011;54093;50.014;19.984;2023-04-24T17:46:06;3.00;;;2.90;;
67164;SDS011;54093;50.014;19.984;2023-04-24T17:55:28;3.10;;;2.90;;
67164;SDS011;54093;50.014;19.984;2023-04-24T18:04:49;3.03;;;2.83;;
67164;SDS011;54093;50.014;19.984;2023-04-24T18:14:10;3.25;;;3.05;;
67164;SDS011;54093;50.014;19.984;2023-04-24T18:23:31;3.80;;;3.50;;
67164;SDS011;54093;50.014;19.984;2023-04-24T18:32:52;5.57;;;4.75;;
67164;SDS011;54093;50.014;19.984;2023-04-24T18:42:13;4.25;;;3.97;;
67164;SDS011;54093;50.014;19.984;2023-04-24T18:51:34;5.78;;;4.65;;
67164;SDS011;54093;50.014;19.984;2023-04-24T19:00:55;5.78;;;3.65;;
67164;SDS011;54093;50.014;19.984;2023-04-24T19:10:16;3.65;;;3.35;;
67164;SDS011;54093;50.014;19.984;2023-04-24T19:19:37;6.32;;;3.42;;
67164;SDS011;54093;50.014;19.984;2023-04-24T19:28:58;4.40;;;4.13;;
67164;SDS011;54093;50.014;19.984;2023-04-24T19:38:19;4.57;;;4.28;;
67164;SDS011;54093;50.014;19.984;2023-04-24T19:47:40;3.83;;;3.58;;
67164;SDS011;54093;50.014;19.984;2023-04-24T19:57:01;4.25;;;3.95;;
67164;SDS011;54093;50.014;19.984;2023-04-24T20:06:22;4.90;;;4.53;;
67164;SDS011;54093;50.014;19.984;2023-04-24T20:15:43;7.70;;;5.00;;
67164;SDS011;54093;50.014;19.984;2023-04-24T20:25:06;9.07;;;5.70;;
67164;SDS011;54093;50.014;19.984;2023-04-24T20:34:28;5.18;;;4.78;;
67164;SDS011;54093;50.014;19.984;2023-04-24T20:43:49;5.85;;;5.20;;
67164;SDS011;54093;50.014;19.984;2023-04-24T20:53:10;5.88;;;5.25;;
67164;SDS011;54093;50.014;19.984;2023-04-24T21:02:31;4.63;;;4.30;;
67164;SDS011;54093;50.014;19.984;2023-04-24T21:11:53;6.03;;;5.30;;
67164;SDS011;54093;50.014;19.984;2023-04-24T21:21:14;6.95;;;5.53;;
67164;SDS011;54093;50.014;19.984;2023-04-24T21:30:35;8.32;;;6.22;;
67164;SDS011;54093;50.014;19.984;2023-04-24T21:39:56;7.35;;;6.75;;
67164;SDS011;54093;50.014;19.984;2023-04-24T21:49:17;8.63;;;6.25;;
67164;SDS011;54093;50.014;19.984;2023-04-24T21:58:38;8.88;;;7.93;;
67164;SDS011;54093;50.014;19.984;2023-04-24T22:07:59;14.55;;;10.35;;
67164;SDS011;54093;50.014;19.984;2023-04-24T22:17:21;9.55;;;8.65;;
67164;SDS011;54093;50.014;19.984;2023-04-24T22:26:42;10.75;;;9.65;;
67164;SDS011;54093;50.014;19.984;2023-04-24T22:36:03;15.70;;;11.98;;
67164;SDS011;54093;50.014;19.984;2023-04-24T22:45:25;11.10;;;10.02;;
67164;SDS011;54093;50.014;19.984;2023-04-24T22:54:46;14.02;;;11.10;;
67164;SDS011;54093;50.014;19.984;2023-04-24T23:04:07;10.23;;;9.23;;
67164;SDS011;54093;50.014;19.984;2023-04-24T23:13:28;10.10;;;9.18;;
67164;SDS011;54093;50.014;19.984;2023-04-24T23:22:49;7.13;;;6.63;;
67164;SDS011;54093;50.014;19.984;2023-04-24T23:32:10;6.80;;;6.28;;
67164;SDS011;54093;50.014;19.984;2023-04-24T23:41:31;6.22;;;5.72;;
67164;SDS011;54093;50.014;19.984;2023-04-24T23:50:52;6.05;;;5.65;;
